sensor_id;sensor_type;location;lat;lon;timestamp;pressure;altitude;pressure_sealevel;temperature;humidity
25510;BME280;13413;52.336;21.200;2023-04-08T00:02:01;101089.22;;;7.36;65.26
25510;BME280;13413;52.336;21.200;2023-04-08T00:04:54;101086.15;;;7.39;65.24
25510;BME280;13413;52.336;21.200;2023-04-08T00:07:49;101090.08;;;7.40;65.25
25510;BME280;13413;52.336;21.200;2023-04-08T00:10:43;101092.45;;;7.45;65.32
25510;BME280;13413;52.336;21.200;2023-04-08T00:13:37;101090.61;;;7.43;65.27
25510;BME280;13413;52.336;21.200;2023-04-08T00:16:31;101092.49;;;7.42;65.25
25510;BME280;13413;52.336;21.200;2023-04-08T00:19:25;101091.64;;;7.44;65.39
25510;BME280;13413;52.336;21.200;2023-04-08T00:22:19;101092.45;;;7.47;65.36
25510;BME280;13413;52.336;21.200;2023-04-08T00:25:14;101086.69;;;7.46;65.10
25510;BME280;13413;52.336;21.200;2023-04-08T00:28:08;101087.27;;;7.48;65.29
25510;BME280;13413;52.336;21.200;2023-04-08T00:31:01;101084.98;;;7.48;65.23
25510;BME280;13413;52.336;21.200;2023-04-08T00:33:56;101081.36;;;7.41;65.18
25510;BME280;13413;52.336;21.200;2023-04-08T00:36:50;101086.26;;;7.41;65.26
25510;BME280;13413;52.336;21.200;2023-04-08T00:39:44;101090.15;;;7.45;65.32
25510;BME280;13413;52.336;21.200;2023-04-08T00:42:38;101091.97;;;7.51;65.55
25510;BME280;13413;52.336;21.200;2023-04-08T00:45:33;101090.96;;;7.56;65.58
25510;BME280;13413;52.336;21.200;2023-04-08T00:51:19;101098.80;;;7.53;65.24
25510;BME280;13413;52.336;21.200;2023-04-08T00:54:14;101098.19;;;7.52;65.20
25510;BME280;13413;52.336;21.200;2023-04-08T00:57:08;101098.38;;;7.40;65.15
25510;BME280;13413;52.336;21.200;2023-04-08T01:00:02;101107.25;;;7.37;65.15
25510;BME280;13413;52.336;21.200;2023-04-08T01:03:04;101113.21;;;7.31;65.11
25510;BME280;13413;52.336;21.200;2023-04-08T01:06:09;101114.81;;;7.15;64.91
25510;BME280;13413;52.336;21.200;2023-04-08T01:09:04;101113.59;;;7.13;64.77
25510;BME280;13413;52.336;21.200;2023-04-08T01:17:21;101113.14;;;7.18;64.87
25510;BME280;13413;52.336;21.200;2023-04-08T01:20:17;101109.67;;;7.10;64.96
25510;BME280;13413;52.336;21.200;2023-04-08T01:23:12;101111.35;;;7.09;65.06
25510;BME280;13413;52.336;21.200;2023-04-08T01:26:11;101114.85;;;7.05;65.09
25510;BME280;13413;52.336;21.200;2023-04-08T01:29:07;101112.69;;;7.08;65.13
25510;BME280;13413;52.336;21.200;2023-04-08T01:32:02;101113.54;;;7.10;65.09
25510;BME280;13413;52.336;21.200;2023-04-08T01:34:59;101113.86;;;7.10;65.13
25510;BME280;13413;52.336;21.200;2023-04-08T01:37:54;101127.59;;;7.06;65.05
25510;BME280;13413;52.336;21.200;2023-04-08T01:40:50;101128.85;;;6.94;65.14
25510;BME280;13413;52.336;21.200;2023-04-08T01:43:46;101125.95;;;6.89;65.37
25510;BME280;13413;52.336;21.200;2023-04-08T01:46:42;101128.19;;;6.87;65.42
25510;BME280;13413;52.336;21.200;2023-04-08T01:52:47;101127.10;;;6.80;65.41
25510;BME280;13413;52.336;21.200;2023-04-08T01:55:42;101129.81;;;6.73;65.41
25510;BME280;13413;52.336;21.200;2023-04-08T01:58:41;101130.15;;;6.65;65.55
25510;BME280;13413;52.336;21.200;2023-04-08T02:04:34;101134.73;;;6.57;65.46
25510;BME280;13413;52.336;21.200;2023-04-08T02:07:29;101138.91;;;6.44;65.58
25510;BME280;13413;52.336;21.200;2023-04-08T02:10:23;101137.80;;;6.39;65.61
25510;BME280;13413;52.336;21.200;2023-04-08T02:13:18;101141.02;;;6.32;65.86
25510;BME280;13413;52.336;21.200;2023-04-08T02:16:17;101151.02;;;6.26;65.93
25510;BME280;13413;52.336;21.200;2023-04-08T02:19:17;101150.83;;;6.22;66.08
25510;BME280;13413;52.336;21.200;2023-04-08T02:22:18;101148.24;;;6.20;66.13
25510;BME280;13413;52.336;21.200;2023-04-08T02:25:16;101150.06;;;6.17;66.14
25510;BME280;13413;52.336;21.200;2023-04-08T02:28:13;101153.67;;;6.07;66.12
25510;BME280;13413;52.336;21.200;2023-04-08T02:31:09;101159.84;;;5.96;66.26
25510;BME280;13413;52.336;21.200;2023-04-08T02:34:05;101162.91;;;5.93;66.38
25510;BME280;13413;52.336;21.200;2023-04-08T02:37:02;101161.54;;;5.91;66.54
25510;BME280;13413;52.336;21.200;2023-04-08T02:39:56;101164.29;;;5.87;66.43
25510;BME280;13413;52.336;21.200;2023-04-08T02:42:50;101164.23;;;5.83;66.41
25510;BME280;13413;52.336;21.200;2023-04-08T02:45:45;101170.71;;;5.77;66.69
25510;BME280;13413;52.336;21.200;2023-04-08T02:48:38;101172.54;;;5.74;66.73
25510;BME280;13413;52.336;21.200;2023-04-08T02:51:32;101174.15;;;5.69;66.85
25510;BME280;13413;52.336;21.200;2023-04-08T02:54:26;101176.75;;;5.68;66.79
25510;BME280;13413;52.336;21.200;2023-04-08T02:57:20;101181.53;;;5.63;66.82
25510;BME280;13413;52.336;21.200;2023-04-08T03:00:16;101186.58;;;5.59;66.89
25510;BME280;13413;52.336;21.200;2023-04-08T03:03:10;101185.16;;;5.55;67.00
25510;BME280;13413;52.336;21.200;2023-04-08T03:06:04;101192.66;;;5.51;66.90
25510;BME280;13413;52.336;21.200;2023-04-08T03:08:58;101195.52;;;5.37;66.64
25510;BME280;13413;52.336;21.200;2023-04-08T03:11:54;101199.16;;;5.27;66.72
25510;BME280;13413;52.336;21.200;2023-04-08T03:14:49;101199.23;;;5.21;67.02
25510;BME280;13413;52.336;21.200;2023-04-08T03:17:42;101201.34;;;5.19;67.15
25510;BME280;13413;52.336;21.200;2023-04-08T03:20:36;101201.65;;;5.13;67.04
25510;BME280;13413;52.336;21.200;2023-04-08T03:23:29;101202.96;;;5.09;66.99
25510;BME280;13413;52.336;21.200;2023-04-08T03:26:23;101200.89;;;5.09;67.37
25510;BME280;13413;52.336;21.200;2023-04-08T03:29:17;101207.77;;;5.15;67.43
25510;BME280;13413;52.336;21.200;2023-04-08T03:37:45;101207.16;;;5.21;67.41
25510;BME280;13413;52.336;21.200;2023-04-08T03:40:39;101206.86;;;5.13;67.14
25510;BME280;13413;52.336;21.200;2023-04-08T03:43:33;101208.89;;;5.06;67.26
25510;BME280;13413;52.336;21.200;2023-04-08T03:46:27;101210.14;;;5.01;67.17
25510;BME280;13413;52.336;21.200;2023-04-08T03:49:21;101213.67;;;4.96;67.04
25510;BME280;13413;52.336;21.200;2023-04-08T03:52:15;101217.48;;;4.88;67.16
25510;BME280;13413;52.336;21.200;2023-04-08T03:55:10;101218.91;;;4.80;67.07
25510;BME280;13413;52.336;21.200;2023-04-08T03:58:04;101218.79;;;4.76;67.23
25510;BME280;13413;52.336;21.200;2023-04-08T04:00:58;101222.92;;;4.72;67.14
25510;BME280;13413;52.336;21.200;2023-04-08T04:03:52;101224.69;;;4.69;67.40
25510;BME280;13413;52.336;21.200;2023-04-08T04:06:46;101224.34;;;4.64;67.33
25510;BME280;13413;52.336;21.200;2023-04-08T04:09:40;101229.45;;;4.61;67.45
25510;BME280;13413;52.336;21.200;2023-04-08T04:12:34;101231.77;;;4.61;67.67
25510;BME280;13413;52.336;21.200;2023-04-08T04:15:28;101235.27;;;4.61;67.91
25510;BME280;13413;52.336;21.200;2023-04-08T04:18:22;101238.72;;;4.62;67.90
25510;BME280;13413;52.336;21.200;2023-04-08T04:21:16;101244.71;;;4.61;67.77
25510;BME280;13413;52.336;21.200;2023-04-08T04:24:10;101246.98;;;4.61;68.03
25510;BME280;13413;52.336;21.200;2023-04-08T04:27:05;101248.44;;;4.63;67.86
25510;BME280;13413;52.336;21.200;2023-04-08T04:30:00;101253.13;;;4.61;67.97
25510;BME280;13413;52.336;21.200;2023-04-08T04:32:55;101256.15;;;4.58;68.02
25510;BME280;13413;52.336;21.200;2023-04-08T04:35:50;101260.99;;;4.59;68.13
25510;BME280;13413;52.336;21.200;2023-04-08T04:38:44;101258.61;;;4.58;68.33
25510;BME280;13413;52.336;21.200;2023-04-08T04:41:38;101262.65;;;4.58;68.47
25510;BME280;13413;52.336;21.200;2023-04-08T04:44:32;101266.33;;;4.60;68.43
25510;BME280;13413;52.336;21.200;2023-04-08T04:47:26;101269.54;;;4.62;68.57
25510;BME280;13413;52.336;21.200;2023-04-08T04:50:20;101267.98;;;4.64;68.57
25510;BME280;13413;52.336;21.200;2023-04-08T04:53:14;101271.95;;;4.62;68.85
25510;BME280;13413;52.336;21.200;2023-04-08T04:59:04;101276.52;;;4.70;68.99
25510;BME280;13413;52.336;21.200;2023-04-08T05:01:58;101280.30;;;4.75;68.98
25510;BME280;13413;52.336;21.200;2023-04-08T05:04:52;101282.49;;;4.76;68.98
25510;BME280;13413;52.336;21.200;2023-04-08T05:07:46;101284.09;;;4.78;68.92
25510;BME280;13413;52.336;21.200;2023-04-08T05:10:42;101285.23;;;4.84;69.07
25510;BME280;13413;52.336;21.200;2023-04-08T05:13:36;101285.34;;;4.89;69.22
25510;BME280;13413;52.336;21.200;2023-04-08T05:16:30;101284.52;;;4.95;69.12
25510;BME280;13413;52.336;21.200;2023-04-08T05:19:24;101291.44;;;5.01;69.32
25510;BME280;13413;52.336;21.200;2023-04-08T05:22:18;101292.00;;;5.07;69.33
25510;BME280;13413;52.336;21.200;2023-04-08T05:25:13;101292.86;;;5.15;69.29
25510;BME280;13413;52.336;21.200;2023-04-08T05:28:07;101299.56;;;5.23;69.28
25510;BME280;13413;52.336;21.200;2023-04-08T05:31:01;101298.33;;;5.32;69.35
25510;BME280;13413;52.336;21.200;2023-04-08T05:33:55;101296.82;;;5.38;69.31
25510;BME280;13413;52.336;21.200;2023-04-08T05:36:49;101297.92;;;5.46;69.30
25510;BME280;13413;52.336;21.200;2023-04-08T05:39:43;101298.90;;;5.56;69.34
25510;BME280;13413;52.336;21.200;2023-04-08T05:42:37;101299.09;;;5.63;69.29
25510;BME280;13413;52.336;21.200;2023-04-08T05:45:31;101303.80;;;5.68;69.05
25510;BME280;13413;52.336;21.200;2023-04-08T05:48:23;101299.31;;;5.75;69.14
25510;BME280;13413;52.336;21.200;2023-04-08T05:53:59;101306.34;;;5.93;68.83
25510;BME280;13413;52.336;21.200;2023-04-08T05:56:53;101303.35;;;5.99;68.80
25510;BME280;13413;52.336;21.200;2023-04-08T05:59:47;101306.55;;;6.08;68.74
25510;BME280;13413;52.336;21.200;2023-04-08T06:02:41;101308.92;;;6.20;68.83
25510;BME280;13413;52.336;21.200;2023-04-08T06:05:35;101313.60;;;6.31;68.66
25510;BME280;13413;52.336;21.200;2023-04-08T06:08:30;101312.89;;;6.37;68.43
25510;BME280;13413;52.336;21.200;2023-04-08T06:14:33;101315.66;;;6.55;68.39
25510;BME280;13413;52.336;21.200;2023-04-08T06:17:28;101320.29;;;6.63;68.38
25510;BME280;13413;52.336;21.200;2023-04-08T06:20:21;101320.00;;;6.71;68.20
25510;BME280;13413;52.336;21.200;2023-04-08T06:23:15;101315.67;;;6.80;68.18
25510;BME280;13413;52.336;21.200;2023-04-08T06:26:09;101320.20;;;6.89;67.91
25510;BME280;13413;52.336;21.200;2023-04-08T06:29:03;101320.52;;;6.98;67.76
25510;BME280;13413;52.336;21.200;2023-04-08T06:31:57;101321.30;;;7.07;67.68
25510;BME280;13413;52.336;21.200;2023-04-08T06:34:51;101319.88;;;7.14;67.40
25510;BME280;13413;52.336;21.200;2023-04-08T06:37:45;101314.83;;;7.19;67.28
25510;BME280;13413;52.336;21.200;2023-04-08T06:40:40;101316.18;;;7.28;67.41
25510;BME280;13413;52.336;21.200;2023-04-08T06:43:34;101320.27;;;7.38;67.67
25510;BME280;13413;52.336;21.200;2023-04-08T06:46:28;101320.89;;;7.47;67.32
25510;BME280;13413;52.336;21.200;2023-04-08T06:49:22;101323.00;;;7.57;67.18
25510;BME280;13413;52.336;21.200;2023-04-08T06:52:16;101324.03;;;7.65;67.12
25510;BME280;13413;52.336;21.200;2023-04-08T06:55:11;101325.67;;;7.74;66.88
25510;BME280;13413;52.336;21.200;2023-04-08T06:58:05;101323.77;;;7.82;66.90
25510;BME280;13413;52.336;21.200;2023-04-08T07:00:59;101325.35;;;7.90;66.72
25510;BME280;13413;52.336;21.200;2023-04-08T07:03:53;101328.05;;;7.97;66.47
25510;BME280;13413;52.336;21.200;2023-04-08T07:06:47;101324.16;;;8.07;66.53
25510;BME280;13413;52.336;21.200;2023-04-08T07:09:41;101327.13;;;8.16;66.44
25510;BME280;13413;52.336;21.200;2023-04-08T07:12:36;101328.09;;;8.22;66.30
25510;BME280;13413;52.336;21.200;2023-04-08T07:15:29;101326.27;;;8.35;66.44
25510;BME280;13413;52.336;21.200;2023-04-08T07:18:23;101328.73;;;8.45;65.88
25510;BME280;13413;52.336;21.200;2023-04-08T07:21:17;101334.27;;;8.54;65.92
25510;BME280;13413;52.336;21.200;2023-04-08T07:24:11;101338.98;;;8.60;65.15
25510;BME280;13413;52.336;21.200;2023-04-08T07:27:06;101344.59;;;8.70;65.76
25510;BME280;13413;52.336;21.200;2023-04-08T07:30:00;101352.25;;;8.81;65.49
25510;BME280;13413;52.336;21.200;2023-04-08T07:32:55;101344.92;;;8.88;65.33
25510;BME280;13413;52.336;21.200;2023-04-08T07:35:48;101348.45;;;8.98;65.06
25510;BME280;13413;52.336;21.200;2023-04-08T07:38:42;101352.81;;;9.07;64.46
25510;BME280;13413;52.336;21.200;2023-04-08T07:44:55;101357.09;;;9.25;64.54
25510;BME280;13413;52.336;21.200;2023-04-08T07:47:49;101352.26;;;9.34;64.24
25510;BME280;13413;52.336;21.200;2023-04-08T07:50:42;101350.25;;;9.44;64.20
25510;BME280;13413;52.336;21.200;2023-04-08T07:53:36;101354.74;;;9.52;64.36
25510;BME280;13413;52.336;21.200;2023-04-08T07:56:35;101351.73;;;9.60;63.76
25510;BME280;13413;52.336;21.200;2023-04-08T07:59:30;101349.34;;;9.68;64.02
25510;BME280;13413;52.336;21.200;2023-04-08T08:02:24;101351.48;;;9.81;63.87
25510;BME280;13413;52.336;21.200;2023-04-08T08:05:17;101349.65;;;9.93;63.70
25510;BME280;13413;52.336;21.200;2023-04-08T08:13:03;101349.79;;;10.17;63.24
25510;BME280;13413;52.336;21.200;2023-04-08T08:15:58;101349.20;;;10.25;62.53
25510;BME280;13413;52.336;21.200;2023-04-08T08:18:52;101349.52;;;10.36;62.94
25510;BME280;13413;52.336;21.200;2023-04-08T08:21:46;101347.00;;;10.49;62.56
25510;BME280;13413;52.336;21.200;2023-04-08T08:24:40;101350.34;;;10.47;61.93
25510;BME280;13413;52.336;21.200;2023-04-08T08:27:34;101349.38;;;10.55;61.84
25510;BME280;13413;52.336;21.200;2023-04-08T08:30:28;101346.47;;;10.63;61.78
25510;BME280;13413;52.336;21.200;2023-04-08T08:33:23;101346.97;;;10.71;61.61
25510;BME280;13413;52.336;21.200;2023-04-08T08:36:16;101341.27;;;10.78;62.08
25510;BME280;13413;52.336;21.200;2023-04-08T08:39:11;101339.42;;;10.98;61.65
25510;BME280;13413;52.336;21.200;2023-04-08T08:42:05;101339.52;;;11.12;61.56
25510;BME280;13413;52.336;21.200;2023-04-08T08:45:02;101339.42;;;11.26;61.53
25510;BME280;13413;52.336;21.200;2023-04-08T08:47:56;101336.71;;;11.42;61.69
25510;BME280;13413;52.336;21.200;2023-04-08T08:50:50;101335.32;;;11.53;60.82
25510;BME280;13413;52.336;21.200;2023-04-08T08:53:44;101336.08;;;11.53;60.04
25510;BME280;13413;52.336;21.200;2023-04-08T08:56:38;101338.89;;;11.57;60.14
25510;BME280;13413;52.336;21.200;2023-04-08T08:59:32;101340.28;;;11.79;60.45
25510;BME280;13413;52.336;21.200;2023-04-08T09:02:27;101344.73;;;12.04;59.86
25510;BME280;13413;52.336;21.200;2023-04-08T09:05:22;101343.42;;;12.33;59.91
25510;BME280;13413;52.336;21.200;2023-04-08T09:08:34;101342.07;;;12.64;59.14
25510;BME280;13413;52.336;21.200;2023-04-08T09:11:28;101346.05;;;12.73;58.55
25510;BME280;13413;52.336;21.200;2023-04-08T09:14:23;101344.04;;;12.85;58.68
25510;BME280;13413;52.336;21.200;2023-04-08T09:17:31;101340.52;;;13.12;59.02
25510;BME280;13413;52.336;21.200;2023-04-08T09:20:26;101346.52;;;13.38;57.81
25510;BME280;13413;52.336;21.200;2023-04-08T09:23:21;101346.42;;;13.47;56.80
25510;BME280;13413;52.336;21.200;2023-04-08T09:26:16;101351.77;;;13.53;56.17
25510;BME280;13413;52.336;21.200;2023-04-08T09:29:10;101352.73;;;13.73;55.85
25510;BME280;13413;52.336;21.200;2023-04-08T09:32:04;101355.85;;;13.94;56.93
25510;BME280;13413;52.336;21.200;2023-04-08T09:34:58;101363.23;;;14.12;55.50
25510;BME280;13413;52.336;21.200;2023-04-08T09:37:52;101359.70;;;14.19;54.78
25510;BME280;13413;52.336;21.200;2023-04-08T09:40:46;101357.61;;;14.28;55.72
25510;BME280;13413;52.336;21.200;2023-04-08T09:43:43;101355.75;;;14.60;54.94
25510;BME280;13413;52.336;21.200;2023-04-08T09:46:43;101352.39;;;14.78;54.10
25510;BME280;13413;52.336;21.200;2023-04-08T09:49:45;101351.30;;;14.98;54.46
25510;BME280;13413;52.336;21.200;2023-04-08T09:52:45;101348.92;;;15.24;53.78
25510;BME280;13413;52.336;21.200;2023-04-08T09:55:41;101348.81;;;15.47;53.70
25510;BME280;13413;52.336;21.200;2023-04-08T09:58:40;101343.51;;;15.72;53.34
25510;BME280;13413;52.336;21.200;2023-04-08T10:01:38;101338.93;;;15.90;52.62
25510;BME280;13413;52.336;21.200;2023-04-08T10:04:36;101342.92;;;16.06;51.65
25510;BME280;13413;52.336;21.200;2023-04-08T10:07:32;101343.79;;;16.16;52.15
25510;BME280;13413;52.336;21.200;2023-04-08T10:10:27;101342.70;;;16.42;51.91
25510;BME280;13413;52.336;21.200;2023-04-08T10:13:21;101340.39;;;16.55;50.91
25510;BME280;13413;52.336;21.200;2023-04-08T10:16:23;101340.88;;;16.80;50.19
25510;BME280;13413;52.336;21.200;2023-04-08T10:19:47;101342.02;;;16.86;49.81
25510;BME280;13413;52.336;21.200;2023-04-08T10:22:50;101338.63;;;16.97;48.88
25510;BME280;13413;52.336;21.200;2023-04-08T10:31:23;101330.61;;;17.34;48.09
25510;BME280;13413;52.336;21.200;2023-04-08T10:34:18;101335.91;;;17.43;47.75
25510;BME280;13413;52.336;21.200;2023-04-08T10:37:12;101333.58;;;17.61;47.57
25510;BME280;13413;52.336;21.200;2023-04-08T10:40:19;101329.52;;;17.79;47.03
25510;BME280;13413;52.336;21.200;2023-04-08T10:43:16;101331.88;;;17.74;45.75
25510;BME280;13413;52.336;21.200;2023-04-08T10:46:10;101338.25;;;17.84;46.69
25510;BME280;13413;52.336;21.200;2023-04-08T10:49:04;101334.81;;;18.00;46.21
25510;BME280;13413;52.336;21.200;2023-04-08T10:51:58;101333.59;;;18.27;46.33
25510;BME280;13413;52.336;21.200;2023-04-08T10:54:53;101330.80;;;18.59;45.62
25510;BME280;13413;52.336;21.200;2023-04-08T10:57:47;101327.79;;;18.60;44.53
25510;BME280;13413;52.336;21.200;2023-04-08T11:00:41;101325.02;;;18.61;44.72
25510;BME280;13413;52.336;21.200;2023-04-08T11:03:36;101322.89;;;18.71;44.68
25510;BME280;13413;52.336;21.200;2023-04-08T11:06:30;101321.33;;;18.81;44.91
25510;BME280;13413;52.336;21.200;2023-04-08T11:09:24;101316.61;;;18.81;43.51
25510;BME280;13413;52.336;21.200;2023-04-08T11:12:18;101315.56;;;18.67;43.37
25510;BME280;13413;52.336;21.200;2023-04-08T11:15:13;101307.23;;;18.82;43.16
25510;BME280;13413;52.336;21.200;2023-04-08T11:18:14;101305.73;;;18.98;43.25
25510;BME280;13413;52.336;21.200;2023-04-08T11:21:11;101311.48;;;19.18;43.04
25510;BME280;13413;52.336;21.200;2023-04-08T11:24:12;101309.76;;;19.41;43.11
25510;BME280;13413;52.336;21.200;2023-04-08T11:27:07;101306.41;;;19.64;41.92
25510;BME280;13413;52.336;21.200;2023-04-08T11:30:00;101304.42;;;19.68;41.56
25510;BME280;13413;52.336;21.200;2023-04-08T11:32:54;101306.33;;;19.61;41.34
25510;BME280;13413;52.336;21.200;2023-04-08T11:35:51;101302.48;;;19.50;40.77
25510;BME280;13413;52.336;21.200;2023-04-08T11:38:45;101300.03;;;19.52;41.31
25510;BME280;13413;52.336;21.200;2023-04-08T11:41:40;101303.22;;;19.51;40.20
25510;BME280;13413;52.336;21.200;2023-04-08T11:44:33;101296.05;;;19.32;40.51
25510;BME280;13413;52.336;21.200;2023-04-08T11:47:32;101291.90;;;19.22;40.57
25510;BME280;13413;52.336;21.200;2023-04-08T11:50:27;101290.41;;;19.26;40.23
25510;BME280;13413;52.336;21.200;2023-04-08T11:53:23;101286.14;;;19.30;40.60
25510;BME280;13413;52.336;21.200;2023-04-08T11:56:19;101287.94;;;19.54;40.61
25510;BME280;13413;52.336;21.200;2023-04-08T11:59:13;101284.53;;;19.89;40.61
25510;BME280;13413;52.336;21.200;2023-04-08T12:02:07;101283.23;;;19.87;39.98
25510;BME280;13413;52.336;21.200;2023-04-08T12:05:01;101276.33;;;19.54;40.41
25510;BME280;13413;52.336;21.200;2023-04-08T12:07:55;101279.25;;;19.42;40.39
25510;BME280;13413;52.336;21.200;2023-04-08T12:10:49;101280.48;;;19.53;40.59
25510;BME280;13413;52.336;21.200;2023-04-08T12:13:43;101277.66;;;19.34;39.89
25510;BME280;13413;52.336;21.200;2023-04-08T12:16:37;101277.30;;;18.62;38.55
25510;BME280;13413;52.336;21.200;2023-04-08T12:19:32;101282.66;;;18.16;39.94
25510;BME280;13413;52.336;21.200;2023-04-08T12:22:25;101273.94;;;18.34;40.70
25510;BME280;13413;52.336;21.200;2023-04-08T12:25:18;101264.27;;;18.75;40.92
25510;BME280;13413;52.336;21.200;2023-04-08T12:28:12;101262.70;;;19.17;41.03
25510;BME280;13413;52.336;21.200;2023-04-08T12:31:06;101263.04;;;19.56;40.69
25510;BME280;13413;52.336;21.200;2023-04-08T12:34:00;101262.11;;;19.74;40.15
25510;BME280;13413;52.336;21.200;2023-04-08T12:36:54;101262.95;;;19.62;39.84
25510;BME280;13413;52.336;21.200;2023-04-08T12:39:48;101260.83;;;19.35;39.53
25510;BME280;13413;52.336;21.200;2023-04-08T12:42:41;101259.13;;;19.19;40.26
25510;BME280;13413;52.336;21.200;2023-04-08T12:51:51;101252.67;;;19.13;40.22
25510;BME280;13413;52.336;21.200;2023-04-08T12:54:45;101247.00;;;19.44;39.72
25510;BME280;13413;52.336;21.200;2023-04-08T12:57:39;101243.73;;;19.42;39.36
25510;BME280;13413;52.336;21.200;2023-04-08T13:00:33;101244.20;;;19.31;39.54
25510;BME280;13413;52.336;21.200;2023-04-08T13:03:26;101241.50;;;19.13;39.66
25510;BME280;13413;52.336;21.200;2023-04-08T13:06:20;101242.22;;;19.05;40.05
25510;BME280;13413;52.336;21.200;2023-04-08T13:09:31;101242.66;;;18.93;40.18
25510;BME280;13413;52.336;21.200;2023-04-08T13:12:25;101239.98;;;18.93;40.19
25510;BME280;13413;52.336;21.200;2023-04-08T13:15:19;101237.08;;;18.85;40.35
25510;BME280;13413;52.336;21.200;2023-04-08T13:18:13;101238.11;;;18.74;39.55
25510;BME280;13413;52.336;21.200;2023-04-08T13:21:07;101242.11;;;18.52;39.85
25510;BME280;13413;52.336;21.200;2023-04-08T13:24:02;101243.02;;;18.31;39.84
25510;BME280;13413;52.336;21.200;2023-04-08T13:26:56;101236.51;;;18.18;40.55
25510;BME280;13413;52.336;21.200;2023-04-08T13:29:51;101240.38;;;18.10;40.55
25510;BME280;13413;52.336;21.200;2023-04-08T13:32:45;101237.70;;;17.96;40.65
25510;BME280;13413;52.336;21.200;2023-04-08T13:35:39;101232.77;;;17.80;41.13
25510;BME280;13413;52.336;21.200;2023-04-08T13:41:40;101228.08;;;17.50;41.12
25510;BME280;13413;52.336;21.200;2023-04-08T13:47:28;101228.41;;;17.36;41.59
25510;BME280;13413;52.336;21.200;2023-04-08T13:50:22;101227.67;;;17.29;41.57
25510;BME280;13413;52.336;21.200;2023-04-08T13:53:16;101223.05;;;17.22;41.70
25510;BME280;13413;52.336;21.200;2023-04-08T13:56:10;101222.45;;;17.24;41.79
25510;BME280;13413;52.336;21.200;2023-04-08T13:59:04;101219.88;;;17.22;41.92
25510;BME280;13413;52.336;21.200;2023-04-08T14:01:58;101221.41;;;17.22;42.00
25510;BME280;13413;52.336;21.200;2023-04-08T14:04:52;101223.23;;;17.23;41.78
25510;BME280;13413;52.336;21.200;2023-04-08T14:07:46;101219.07;;;17.25;41.63
25510;BME280;13413;52.336;21.200;2023-04-08T14:10:39;101220.86;;;17.20;41.56
25510;BME280;13413;52.336;21.200;2023-04-08T14:13:33;101219.59;;;17.16;41.51
25510;BME280;13413;52.336;21.200;2023-04-08T14:16:27;101219.42;;;17.07;41.78
25510;BME280;13413;52.336;21.200;2023-04-08T14:19:21;101215.55;;;17.02;41.41
25510;BME280;13413;52.336;21.200;2023-04-08T14:22:15;101211.21;;;16.89;41.12
25510;BME280;13413;52.336;21.200;2023-04-08T14:25:10;101207.92;;;16.73;41.15
25510;BME280;13413;52.336;21.200;2023-04-08T14:28:03;101207.01;;;16.61;40.98
25510;BME280;13413;52.336;21.200;2023-04-08T14:30:57;101198.38;;;16.58;41.40
25510;BME280;13413;52.336;21.200;2023-04-08T14:33:51;101196.62;;;16.66;41.50
25510;BME280;13413;52.336;21.200;2023-04-08T14:36:45;101195.74;;;16.82;41.54
25510;BME280;13413;52.336;21.200;2023-04-08T14:39:39;101193.09;;;16.84;41.49
25510;BME280;13413;52.336;21.200;2023-04-08T14:42:33;101190.59;;;16.77;41.50
25510;BME280;13413;52.336;21.200;2023-04-08T14:45:27;101188.02;;;16.75;41.43
25510;BME280;13413;52.336;21.200;2023-04-08T14:48:21;101190.41;;;16.69;41.52
25510;BME280;13413;52.336;21.200;2023-04-08T14:51:15;101193.33;;;16.67;41.77
25510;BME280;13413;52.336;21.200;2023-04-08T14:54:10;101190.52;;;16.67;41.36
25510;BME280;13413;52.336;21.200;2023-04-08T14:57:03;101190.46;;;16.63;41.91
25510;BME280;13413;52.336;21.200;2023-04-08T14:59:57;101192.11;;;16.63;42.11
25510;BME280;13413;52.336;21.200;2023-04-08T15:08:26;101193.13;;;16.41;42.48
25510;BME280;13413;52.336;21.200;2023-04-08T15:11:20;101194.35;;;16.35;42.80
25510;BME280;13413;52.336;21.200;2023-04-08T15:14:14;101189.77;;;16.33;42.95
25510;BME280;13413;52.336;21.200;2023-04-08T15:17:08;101193.92;;;16.29;42.73
25510;BME280;13413;52.336;21.200;2023-04-08T15:20:03;101196.84;;;16.18;42.93
25510;BME280;13413;52.336;21.200;2023-04-08T15:22:57;101197.27;;;16.09;42.99
25510;BME280;13413;52.336;21.200;2023-04-08T15:25:54;101199.23;;;15.99;43.01
25510;BME280;13413;52.336;21.200;2023-04-08T15:28:49;101199.38;;;15.92;43.02
25510;BME280;13413;52.336;21.200;2023-04-08T15:31:43;101199.09;;;15.85;42.97
25510;BME280;13413;52.336;21.200;2023-04-08T15:34:37;101197.46;;;15.81;43.20
25510;BME280;13413;52.336;21.200;2023-04-08T15:37:31;101204.77;;;15.78;43.18
25510;BME280;13413;52.336;21.200;2023-04-08T15:40:26;101204.98;;;15.73;42.94
25510;BME280;13413;52.336;21.200;2023-04-08T15:43:19;101205.45;;;15.66;43.06
25510;BME280;13413;52.336;21.200;2023-04-08T15:46:17;101205.21;;;15.61;43.10
25510;BME280;13413;52.336;21.200;2023-04-08T15:49:11;101208.59;;;15.54;43.14
25510;BME280;13413;52.336;21.200;2023-04-08T15:52:05;101205.92;;;15.51;43.29
25510;BME280;13413;52.336;21.200;2023-04-08T15:54:59;101209.39;;;15.49;43.25
25510;BME280;13413;52.336;21.200;2023-04-08T15:57:53;101209.20;;;15.46;43.19
25510;BME280;13413;52.336;21.200;2023-04-08T16:00:47;101215.58;;;15.46;43.30
25510;BME280;13413;52.336;21.200;2023-04-08T16:03:40;101212.55;;;15.45;43.26
25510;BME280;13413;52.336;21.200;2023-04-08T16:06:35;101214.47;;;15.39;43.30
25510;BME280;13413;52.336;21.200;2023-04-08T16:09:29;101214.92;;;15.40;43.42